createdAt,value
2019-03-30T00:02:31.359Z,17.43
2019-03-30T00:05:03.539Z,19.23
2019-03-30T00:07:37.189Z,19.27
2019-03-30T00:10:11.564Z,19.20
2019-03-30T00:12:43.937Z,19.40
2019-03-30T00:15:16.433Z,15.70
2019-03-30T00:17:48.548Z,19.97
2019-03-30T00:20:20.587Z,20.47
2019-03-30T00:22:53.015Z,20.97
2019-03-30T00:25:25.398Z,18.83
2019-03-30T00:27:57.577Z,20.73
2019-03-30T00:30:29.838Z,20.03
2019-03-30T00:33:01.996Z,20.37
2019-03-30T00:35:34.153Z,20.50
2019-03-30T00:38:06.673Z,20.40
2019-03-30T00:40:38.779Z,20.10
2019-03-30T00:43:11.007Z,20.30
2019-03-30T00:45:43.145Z,20.80
2019-03-30T00:48:15.481Z,20.63
2019-03-30T00:50:47.593Z,19.90
2019-03-30T00:53:20.125Z,20.77
2019-03-30T00:55:52.598Z,20.20
2019-03-30T00:58:25.773Z,20.20
2019-03-30T01:00:58.303Z,18.93
2019-03-30T01:03:30.532Z,20.80
2019-03-30T01:06:02.627Z,19.90
2019-03-30T01:08:34.705Z,21.00
2019-03-30T01:11:06.933Z,20.20
2019-03-30T01:13:39.408Z,21.47
2019-03-30T01:16:12.002Z,19.47
2019-03-30T01:18:44.066Z,19.10
2019-03-30T01:21:16.244Z,20.83
2019-03-30T01:23:48.248Z,19.47
2019-03-30T01:26:19.956Z,18.90
2019-03-30T01:28:52.327Z,20.27
2019-03-30T01:31:24.770Z,19.27
2019-03-30T01:33:57.008Z,19.83
2019-03-30T01:36:29.307Z,18.37
2019-03-30T01:39:01.282Z,19.60
2019-03-30T01:41:33.507Z,19.40
2019-03-30T01:44:05.637Z,18.60
2019-03-30T01:46:37.807Z,21.97
2019-03-30T01:49:09.887Z,20.10
2019-03-30T01:51:42.116Z,18.67
2019-03-30T01:54:14.203Z,19.57
2019-03-30T01:56:46.446Z,18.13
2019-03-30T01:59:18.524Z,18.33
2019-03-30T02:01:51.036Z,17.67
2019-03-30T02:04:23.142Z,19.27
2019-03-30T02:06:55.145Z,18.03
2019-03-30T02:09:27.177Z,18.00
2019-03-30T02:11:59.174Z,18.30
2019-03-30T02:14:31.284Z,17.60
2019-03-30T02:17:03.851Z,17.90
2019-03-30T02:19:36.137Z,19.63
2019-03-30T02:22:07.978Z,18.77
2019-03-30T02:24:39.991Z,18.93
2019-03-30T02:27:12.058Z,18.83
2019-03-30T02:29:44.308Z,18.03
2019-03-30T02:32:16.664Z,17.67
2019-03-30T02:34:49.030Z,18.37
2019-03-30T02:37:21.308Z,18.97
2019-03-30T02:39:53.544Z,16.40
2019-03-30T02:42:25.713Z,18.80
2019-03-30T02:44:57.944Z,17.43
2019-03-30T02:47:30.029Z,17.70
2019-03-30T02:50:02.207Z,18.53
2019-03-30T02:52:34.477Z,17.33
2019-03-30T02:55:06.837Z,17.70
2019-03-30T02:57:39.109Z,17.23
2019-03-30T03:00:13.305Z,17.40
2019-03-30T03:02:45.733Z,18.60
2019-03-30T03:05:17.792Z,17.57
2019-03-30T03:07:49.971Z,17.03
2019-03-30T03:10:21.925Z,16.93
2019-03-30T03:12:53.937Z,17.03
2019-03-30T03:15:25.950Z,17.40
2019-03-30T03:17:58.282Z,16.67
2019-03-30T03:20:30.641Z,18.07
2019-03-30T03:23:02.407Z,18.23
2019-03-30T03:25:34.433Z,16.63
2019-03-30T03:28:07.476Z,17.00
2019-03-30T03:30:39.959Z,17.63
2019-03-30T03:33:12.064Z,16.37
2019-03-30T03:35:44.271Z,17.03
2019-03-30T03:38:16.471Z,17.40
2019-03-30T03:40:48.932Z,16.47
2019-03-30T03:43:22.346Z,17.43
2019-03-30T03:45:54.310Z,17.00
2019-03-30T03:48:26.360Z,16.30
2019-03-30T03:51:02.754Z,17.83
2019-03-30T03:53:35.681Z,17.27
2019-03-30T03:56:07.786Z,17.67
2019-03-30T03:58:39.972Z,16.30
2019-03-30T04:01:11.975Z,16.60
2019-03-30T04:03:44.756Z,16.77
2019-03-30T04:06:16.717Z,16.93
2019-03-30T04:08:48.670Z,17.00
2019-03-30T04:11:20.811Z,18.10
2019-03-30T04:13:53.482Z,23.13
2019-03-30T04:16:25.623Z,17.40
2019-03-30T04:18:58.246Z,17.03
2019-03-30T04:21:43.740Z,17.57
2019-03-30T04:24:04.392Z,17.87
2019-03-30T04:26:36.652Z,16.50
2019-03-30T04:29:08.841Z,18.27
2019-03-30T04:31:42.173Z,18.77
2019-03-30T04:34:14.259Z,18.20
2019-03-30T04:36:46.381Z,16.07
2019-03-30T04:39:18.678Z,16.90
2019-03-30T04:41:52.432Z,16.33
2019-03-30T04:44:24.677Z,17.00
2019-03-30T04:46:56.795Z,17.00
2019-03-30T04:49:28.921Z,17.53
2019-03-30T04:52:01.197Z,17.80
2019-03-30T04:54:33.410Z,16.53
2019-03-30T04:57:06.011Z,17.73
2019-03-30T04:59:38.345Z,16.93
2019-03-30T05:02:10.747Z,17.00
2019-03-30T05:04:43.273Z,17.40
2019-03-30T05:07:15.639Z,17.10
2019-03-30T05:09:48.037Z,16.93
2019-03-30T05:12:21.477Z,16.50
2019-03-30T05:14:54.210Z,17.23
2019-03-30T05:17:26.666Z,15.60
2019-03-30T05:19:59.412Z,17.50
2019-03-30T05:22:31.820Z,15.73
2019-03-30T05:25:04.185Z,16.37
2019-03-30T05:27:36.611Z,18.67
2019-03-30T05:30:09.172Z,16.40
2019-03-30T05:32:41.825Z,16.37
2019-03-30T05:35:14.170Z,16.43
2019-03-30T05:37:46.559Z,16.47
2019-03-30T05:40:18.831Z,16.40
2019-03-30T05:42:51.030Z,17.00
2019-03-30T05:45:25.468Z,15.30
2019-03-30T05:47:57.795Z,15.33
2019-03-30T05:50:32.112Z,16.03
2019-03-30T05:53:04.835Z,16.30
2019-03-30T05:55:37.551Z,17.00
2019-03-30T05:58:09.853Z,15.83
2019-03-30T06:00:42.107Z,16.50
2019-03-30T06:03:14.127Z,17.10
2019-03-30T06:05:46.486Z,15.50
2019-03-30T06:08:18.686Z,15.23
2019-03-30T06:10:51.016Z,15.90
2019-03-30T06:13:24.242Z,14.57
2019-03-30T06:15:56.291Z,15.17
2019-03-30T06:18:28.095Z,17.97
2019-03-30T06:21:00.626Z,14.93
2019-03-30T06:23:35.229Z,15.17
2019-03-30T06:26:08.239Z,15.00
2019-03-30T06:28:38.860Z,16.40
2019-03-30T06:31:11.972Z,15.43
2019-03-30T06:33:44.471Z,16.63
2019-03-30T06:36:16.995Z,15.97
2019-03-30T06:38:49.687Z,16.53
2019-03-30T06:41:22.131Z,16.20
2019-03-30T06:44:03.863Z,15.97
2019-03-30T06:46:39.498Z,17.00
2019-03-30T06:49:11.425Z,15.47
2019-03-30T06:51:43.886Z,15.03
2019-03-30T06:54:16.205Z,16.10
2019-03-30T06:56:48.268Z,15.57
2019-03-30T06:59:21.051Z,13.47
2019-03-30T07:01:53.633Z,17.63
2019-03-30T07:04:26.051Z,16.43
2019-03-30T07:06:58.364Z,16.60
2019-03-30T07:09:30.743Z,15.67
2019-03-30T07:12:03.535Z,14.77
2019-03-30T07:14:35.922Z,14.33
2019-03-30T07:17:08.511Z,15.00
2019-03-30T07:19:41.101Z,18.73
2019-03-30T07:22:13.599Z,17.63
2019-03-30T07:24:46.009Z,16.80
2019-03-30T07:27:18.268Z,16.47
2019-03-30T07:29:51.145Z,14.07
2019-03-30T07:32:23.593Z,14.97
2019-03-30T07:34:55.939Z,15.20
2019-03-30T07:37:27.999Z,15.57
2019-03-30T07:40:00.372Z,15.70
2019-03-30T07:42:32.483Z,13.77
2019-03-30T07:45:05.115Z,13.70
2019-03-30T07:47:37.086Z,16.93
2019-03-30T07:50:09.387Z,14.60
2019-03-30T07:52:41.789Z,16.13
2019-03-30T07:55:14.299Z,14.37
2019-03-30T07:57:47.080Z,17.93
2019-03-30T08:00:19.547Z,15.47
2019-03-30T08:02:52.231Z,15.63
2019-03-30T08:05:24.870Z,15.13
2019-03-30T08:07:57.585Z,15.23
2019-03-30T08:10:29.554Z,15.97
2019-03-30T08:13:02.807Z,15.90
2019-03-30T08:15:35.363Z,17.43
2019-03-30T08:18:08.652Z,15.97
2019-03-30T08:20:41.398Z,18.67
2019-03-30T08:23:15.249Z,18.00
2019-03-30T08:25:47.851Z,17.23
2019-03-30T08:28:20.046Z,17.47
2019-03-30T08:30:52.430Z,19.70
2019-03-30T08:33:24.995Z,18.87
2019-03-30T08:35:56.913Z,19.13
2019-03-30T08:38:29.107Z,19.50
2019-03-30T08:41:01.585Z,20.40
2019-03-30T08:43:34.155Z,19.60
2019-03-30T08:46:08.378Z,20.83
2019-03-30T08:48:40.761Z,20.97
2019-03-30T08:51:13.398Z,25.10
2019-03-30T08:53:54.544Z,20.93
2019-03-30T08:56:21.037Z,22.67
2019-03-30T08:58:53.499Z,23.57
2019-03-30T09:01:26.622Z,23.37
2019-03-30T09:03:59.361Z,24.57
2019-03-30T09:06:31.615Z,24.20
2019-03-30T09:09:03.697Z,23.57
2019-03-30T09:11:36.059Z,25.33
2019-03-30T09:14:08.331Z,23.77
2019-03-30T09:16:40.472Z,20.03
2019-03-30T09:19:16.822Z,24.27
2019-03-30T09:21:54.866Z,24.70
2019-03-30T09:24:28.270Z,25.13
2019-03-30T09:27:01.019Z,23.27
2019-03-30T09:29:33.672Z,26.17
2019-03-30T09:32:14.420Z,23.33
2019-03-30T09:34:39.999Z,21.43
2019-03-30T09:37:12.518Z,23.30
2019-03-30T09:39:49.542Z,21.67
2019-03-30T09:42:22.305Z,20.53
2019-03-30T09:44:54.709Z,20.27
2019-03-30T09:47:26.756Z,19.67
2019-03-30T09:50:02.301Z,19.90
2019-03-30T09:52:35.118Z,18.77
2019-03-30T09:55:07.713Z,18.53
2019-03-30T09:57:40.087Z,27.77
2019-03-30T10:00:13.110Z,18.67
2019-03-30T10:02:47.048Z,16.37
2019-03-30T10:05:21.085Z,20.53
2019-03-30T10:07:53.690Z,19.30
2019-03-30T10:10:26.191Z,16.90
2019-03-30T10:12:58.600Z,15.40
2019-03-30T10:15:30.987Z,15.47
2019-03-30T10:18:04.938Z,15.40
2019-03-30T10:20:37.212Z,15.50
2019-03-30T10:23:11.041Z,16.03
2019-03-30T10:25:44.080Z,17.07
2019-03-30T10:28:16.784Z,16.17
2019-03-30T10:30:48.247Z,15.67
2019-03-30T10:33:25.941Z,16.80
2019-03-30T10:35:57.624Z,15.90
2019-03-30T10:38:30.007Z,16.70
2019-03-30T10:41:02.692Z,16.70
2019-03-30T10:43:34.714Z,16.90
2019-03-30T10:46:07.411Z,17.27
2019-03-30T10:48:39.625Z,16.63
2019-03-30T10:51:11.698Z,17.63
2019-03-30T10:53:43.947Z,21.37
2019-03-30T10:56:16.464Z,17.13
2019-03-30T10:58:48.931Z,17.87
2019-03-30T11:01:21.315Z,17.60
2019-03-30T11:03:53.881Z,16.37
2019-03-30T11:06:26.341Z,17.10
2019-03-30T11:09:00.616Z,17.67
2019-03-30T11:11:34.188Z,16.53
2019-03-30T11:14:06.711Z,16.60
2019-03-30T11:16:40.070Z,16.47
2019-03-30T11:19:12.090Z,16.83
2019-03-30T11:21:44.601Z,14.77
2019-03-30T11:24:17.581Z,17.70
2019-03-30T11:26:50.376Z,18.17
2019-03-30T11:29:23.200Z,21.47
2019-03-30T11:31:56.500Z,17.37
2019-03-30T11:34:29.145Z,17.17
2019-03-30T11:37:02.340Z,17.60
2019-03-30T11:39:35.129Z,18.10
2019-03-30T11:42:09.230Z,17.83
2019-03-30T11:44:42.219Z,18.97
2019-03-30T11:47:15.193Z,18.93
2019-03-30T11:49:49.122Z,18.60
2019-03-30T11:52:21.972Z,17.97
2019-03-30T11:54:54.657Z,17.50
2019-03-30T11:57:31.416Z,18.50
2019-03-30T12:00:04.390Z,18.43
2019-03-30T12:02:36.592Z,16.87
2019-03-30T12:05:09.152Z,17.43
2019-03-30T12:07:42.223Z,18.20
2019-03-30T12:10:14.597Z,14.20
2019-03-30T12:12:47.047Z,18.97
2019-03-30T12:15:19.142Z,19.27
2019-03-30T12:17:51.867Z,19.87
2019-03-30T12:20:24.590Z,18.30
2019-03-30T12:22:56.862Z,18.90
2019-03-30T12:25:35.595Z,18.77
2019-03-30T12:28:04.667Z,19.83
2019-03-30T12:30:37.254Z,20.43
2019-03-30T12:33:09.405Z,18.27
2019-03-30T12:35:42.054Z,18.37
2019-03-30T12:38:15.057Z,20.17
2019-03-30T12:40:47.863Z,20.03
2019-03-30T12:43:20.656Z,20.60
2019-03-30T12:45:52.767Z,23.10
2019-03-30T12:48:25.810Z,20.20
2019-03-30T12:50:58.788Z,20.20
2019-03-30T12:53:31.256Z,20.50
2019-03-30T12:56:04.704Z,20.20
2019-03-30T12:58:37.880Z,19.27
2019-03-30T13:01:11.134Z,18.37
2019-03-30T13:03:43.265Z,19.30
2019-03-30T13:06:15.709Z,18.97
2019-03-30T13:08:47.865Z,20.23
2019-03-30T13:11:20.644Z,23.27
2019-03-30T13:13:52.853Z,17.87
2019-03-30T13:16:26.502Z,19.87
2019-03-30T13:18:59.267Z,19.40
2019-03-30T13:21:32.578Z,18.93
2019-03-30T13:24:07.477Z,24.23
2019-03-30T13:26:40.181Z,20.20
2019-03-30T13:29:13.796Z,21.40
2019-03-30T13:31:46.403Z,19.67
2019-03-30T13:34:18.582Z,18.80
2019-03-30T13:36:51.252Z,19.83
2019-03-30T13:39:23.797Z,19.00
2019-03-30T13:41:55.855Z,18.93
2019-03-30T13:44:29.306Z,19.67
2019-03-30T13:47:03.344Z,18.97
2019-03-30T13:49:35.428Z,19.73
2019-03-30T13:52:07.829Z,20.57
2019-03-30T13:54:40.213Z,22.17
2019-03-30T13:57:13.753Z,23.53
2019-03-30T13:59:46.670Z,23.77
2019-03-30T14:02:19.681Z,20.83
2019-03-30T14:04:53.624Z,21.17
2019-03-30T14:07:26.578Z,21.57
2019-03-30T14:09:59.490Z,21.97
2019-03-30T14:12:32.950Z,21.57
2019-03-30T14:15:09.161Z,23.17
2019-03-30T14:17:41.487Z,22.00
2019-03-30T14:20:14.780Z,22.97
2019-03-30T14:22:48.143Z,20.40
2019-03-30T14:25:21.016Z,19.73
2019-03-30T14:27:55.107Z,26.23
2019-03-30T14:30:28.448Z,20.70
2019-03-30T14:33:02.595Z,21.10
2019-03-30T14:35:36.668Z,23.37
2019-03-30T14:38:10.312Z,19.60
2019-03-30T14:40:43.154Z,20.50
2019-03-30T14:43:15.266Z,20.77
2019-03-30T14:45:47.759Z,20.97
2019-03-30T14:48:20.032Z,19.40
2019-03-30T14:50:52.250Z,17.03
2019-03-30T14:53:25.079Z,19.23
2019-03-30T14:55:58.119Z,19.83
2019-03-30T14:58:30.607Z,19.87
2019-03-30T15:01:03.685Z,19.40
2019-03-30T15:03:37.598Z,19.77
2019-03-30T15:06:10.277Z,19.67
2019-03-30T15:08:42.751Z,20.07
2019-03-30T15:11:15.348Z,21.30
2019-03-30T15:13:47.990Z,22.90
2019-03-30T15:16:20.244Z,24.03
2019-03-30T15:18:52.621Z,25.33
2019-03-30T15:21:28.309Z,27.00
2019-03-30T15:24:00.506Z,26.13
2019-03-30T15:26:33.851Z,25.27
2019-03-30T15:29:06.109Z,28.87
2019-03-30T15:31:38.581Z,28.60
2019-03-30T15:34:11.105Z,29.57
2019-03-30T15:36:43.693Z,30.60
2019-03-30T15:39:16.124Z,35.30
2019-03-30T15:41:48.545Z,32.73
2019-03-30T15:44:21.272Z,33.00
2019-03-30T15:46:53.644Z,32.33
2019-03-30T15:49:26.125Z,32.87
2019-03-30T15:52:13.009Z,32.10
2019-03-30T15:54:33.213Z,32.03
2019-03-30T15:57:14.027Z,33.37
2019-03-30T15:59:39.145Z,34.40
2019-03-30T16:02:11.284Z,30.33
2019-03-30T16:04:44.541Z,33.57
2019-03-30T16:07:16.678Z,34.13
2019-03-30T16:09:49.533Z,34.47
2019-03-30T16:12:21.666Z,32.53
2019-03-30T16:14:53.699Z,33.17
2019-03-30T16:17:26.318Z,32.33
2019-03-30T16:19:58.676Z,31.67
2019-03-30T16:22:31.428Z,33.60
2019-03-30T16:25:03.866Z,33.53
2019-03-30T16:27:39.219Z,36.17
2019-03-30T16:30:10.794Z,32.07
2019-03-30T16:32:43.505Z,32.40
2019-03-30T16:35:15.984Z,33.50
2019-03-30T16:37:48.639Z,32.43
2019-03-30T16:40:20.995Z,32.30
2019-03-30T16:42:53.246Z,34.37
2019-03-30T16:45:26.064Z,33.97
2019-03-30T16:47:58.354Z,34.77
2019-03-30T16:50:30.657Z,33.53
2019-03-30T16:53:03.173Z,34.13
2019-03-30T16:55:35.924Z,34.17
2019-03-30T16:58:08.473Z,33.93
2019-03-30T17:00:55.828Z,35.27
2019-03-30T17:03:14.885Z,36.90
2019-03-30T17:05:47.082Z,36.53
2019-03-30T17:08:19.777Z,38.77
2019-03-30T17:10:51.926Z,37.13
2019-03-30T17:13:24.116Z,36.73
2019-03-30T17:15:58.469Z,37.77
2019-03-30T17:18:30.458Z,37.37
2019-03-30T17:21:02.939Z,38.70
2019-03-30T17:23:35.169Z,37.00
2019-03-30T17:26:07.475Z,38.07
2019-03-30T17:28:40.155Z,37.67
2019-03-30T17:31:13.105Z,38.43
2019-03-30T17:33:45.795Z,38.17
2019-03-30T17:36:18.003Z,38.63
2019-03-30T17:38:50.665Z,40.57
2019-03-30T17:41:22.889Z,38.53
2019-03-30T17:43:55.753Z,37.70
2019-03-30T17:46:28.181Z,36.83
2019-03-30T17:49:00.713Z,38.10
2019-03-30T17:51:34.331Z,40.40
2019-03-30T17:54:06.751Z,37.20
2019-03-30T17:56:40.817Z,38.13
2019-03-30T17:59:14.587Z,37.00
2019-03-30T18:01:47.976Z,36.90
2019-03-30T18:04:20.383Z,38.20
2019-03-30T18:06:53.685Z,38.30
2019-03-30T18:09:26.879Z,38.90
2019-03-30T18:11:59.159Z,38.73
2019-03-30T18:14:32.146Z,38.50
2019-03-30T18:17:04.032Z,39.57
2019-03-30T18:19:37.093Z,40.93
2019-03-30T18:22:09.965Z,39.80
2019-03-30T18:24:42.666Z,40.43
2019-03-30T18:27:15.152Z,41.20
2019-03-30T18:29:47.571Z,42.83
2019-03-30T18:32:21.642Z,40.23
2019-03-30T18:34:56.073Z,42.50
2019-03-30T18:37:28.554Z,41.53
2019-03-30T18:40:01.257Z,42.40
2019-03-30T18:42:33.741Z,43.13
2019-03-30T18:45:08.398Z,45.80
2019-03-30T18:47:40.481Z,40.57
2019-03-30T18:50:13.029Z,42.43
2019-03-30T18:52:45.065Z,42.60
2019-03-30T18:55:20.679Z,43.97
2019-03-30T18:57:53.048Z,44.77
2019-03-30T19:00:29.119Z,46.03
2019-03-30T19:03:03.147Z,45.47
2019-03-30T19:05:35.395Z,45.43
2019-03-30T19:08:08.060Z,46.00
2019-03-30T19:10:40.816Z,47.43
2019-03-30T19:13:13.611Z,47.13
2019-03-30T19:15:46.205Z,48.43
2019-03-30T19:18:18.647Z,44.97
2019-03-30T19:20:51.469Z,46.57
2019-03-30T19:23:23.973Z,46.77
2019-03-30T19:25:56.311Z,49.40
2019-03-30T19:28:28.746Z,47.83
2019-03-30T19:31:01.171Z,50.00
2019-03-30T19:33:34.857Z,49.37
2019-03-30T19:36:09.885Z,48.07
2019-03-30T19:38:41.191Z,49.40
2019-03-30T19:41:13.512Z,50.27
2019-03-30T19:43:45.801Z,50.43
2019-03-30T19:46:18.426Z,49.47
2019-03-30T19:48:51.358Z,51.93
2019-03-30T19:51:24.200Z,51.33
2019-03-30T19:53:59.821Z,48.43
2019-03-30T19:56:30.889Z,50.40
2019-03-30T19:59:10.623Z,49.10
2019-03-30T20:01:37.609Z,53.17
2019-03-30T20:04:10.031Z,51.23
2019-03-30T20:06:42.368Z,52.83
2019-03-30T20:09:14.725Z,52.07
2019-03-30T20:11:47.051Z,54.67
2019-03-30T20:14:19.621Z,52.87
2019-03-30T20:16:53.503Z,53.70
2019-03-30T20:19:26.651Z,55.43
2019-03-30T20:21:59.303Z,54.40
2019-03-30T20:24:31.912Z,53.10
2019-03-30T20:27:05.827Z,58.93
2019-03-30T20:29:40.412Z,54.50
2019-03-30T20:32:14.904Z,56.50
2019-03-30T20:34:48.119Z,57.30
2019-03-30T20:37:21.746Z,55.43
2019-03-30T20:39:54.042Z,56.67
2019-03-30T20:42:26.212Z,58.87
2019-03-30T20:44:58.759Z,59.30
2019-03-30T20:47:31.702Z,55.47
2019-03-30T20:50:04.168Z,59.00
2019-03-30T20:52:36.653Z,57.73
2019-03-30T20:55:09.169Z,57.60
2019-03-30T20:57:41.479Z,58.37
2019-03-30T21:00:15.752Z,56.53
2019-03-30T21:02:48.223Z,58.37
2019-03-30T21:05:20.524Z,58.40
2019-03-30T21:07:53.224Z,58.50
2019-03-30T21:10:26.831Z,59.40
2019-03-30T21:13:01.685Z,60.03
2019-03-30T21:15:34.359Z,60.10
2019-03-30T21:18:06.833Z,60.40
2019-03-30T21:20:39.245Z,59.87
2019-03-30T21:23:12.134Z,59.67
2019-03-30T21:25:46.020Z,60.20
2019-03-30T21:28:18.975Z,59.47
2019-03-30T21:30:51.315Z,60.17
2019-03-30T21:33:25.352Z,60.07
2019-03-30T21:35:59.165Z,61.13
2019-03-30T21:38:31.586Z,58.87
2019-03-30T21:41:03.860Z,63.00
2019-03-30T21:43:36.425Z,57.90
2019-03-30T21:46:08.992Z,59.03
2019-03-30T21:48:41.369Z,59.17
2019-03-30T21:51:14.097Z,59.70
2019-03-30T21:53:46.503Z,59.93
2019-03-30T21:56:20.757Z,59.40
2019-03-30T21:58:53.272Z,59.33
2019-03-30T22:01:25.948Z,60.03
2019-03-30T22:03:58.651Z,61.60
2019-03-30T22:06:30.969Z,59.20
2019-03-30T22:09:03.901Z,59.53
2019-03-30T22:11:36.411Z,59.77
2019-03-30T22:14:09.105Z,61.00
2019-03-30T22:16:42.053Z,59.93
2019-03-30T22:19:14.295Z,63.40
2019-03-30T22:21:46.486Z,60.17
2019-03-30T22:24:21.133Z,59.80
2019-03-30T22:26:53.632Z,60.63
2019-03-30T22:29:26.023Z,60.07
2019-03-30T22:31:58.279Z,63.77
2019-03-30T22:34:31.418Z,64.27
2019-03-30T22:37:03.117Z,61.83
2019-03-30T22:39:35.771Z,72.33
2019-03-30T22:42:08.696Z,68.17
2019-03-30T22:44:41.224Z,67.23
2019-03-30T22:47:14.034Z,64.73
2019-03-30T22:49:47.403Z,67.97
2019-03-30T22:52:20.426Z,67.97
2019-03-30T22:54:53.181Z,73.73
2019-03-30T22:57:26.879Z,68.43
2019-03-30T23:00:02.076Z,68.43
2019-03-30T23:02:34.627Z,67.27
2019-03-30T23:05:08.946Z,65.47
2019-03-30T23:07:41.248Z,67.00
2019-03-30T23:10:13.436Z,65.10
2019-03-30T23:12:46.757Z,65.10
2019-03-30T23:15:19.025Z,66.63
2019-03-30T23:17:52.068Z,66.77
2019-03-30T23:20:24.698Z,66.17
2019-03-30T23:22:57.147Z,64.80
2019-03-30T23:25:29.733Z,64.30
2019-03-30T23:28:01.912Z,65.90
2019-03-30T23:30:34.390Z,63.13
2019-03-30T23:33:06.708Z,62.70
2019-03-30T23:35:38.910Z,61.73
2019-03-30T23:38:11.435Z,60.17
2019-03-30T23:40:44.582Z,65.47
2019-03-30T23:43:17.312Z,63.27
2019-03-30T23:45:49.756Z,62.83
2019-03-30T23:48:22.266Z,60.67
2019-03-30T23:50:54.681Z,61.63
2019-03-30T23:53:26.673Z,62.70
2019-03-30T23:55:58.942Z,61.93
2019-03-30T23:58:31.319Z,62.40
